createdAt,value
2022-11-24T00:04:42.785Z,5.99
2022-11-24T00:15:04.658Z,5.91
2022-11-24T00:25:26.229Z,5.79
2022-11-24T00:35:55.214Z,5.69
2022-11-24T00:46:17.415Z,5.61
2022-11-24T00:56:39.108Z,5.54
2022-11-24T01:07:00.709Z,5.59
2022-11-24T01:17:22.451Z,5.68
2022-11-24T01:27:44.052Z,5.69
2022-11-24T01:38:05.999Z,5.67
2022-11-24T01:48:29.946Z,5.53
2022-11-24T01:58:53.612Z,5.40
2022-11-24T02:09:27.824Z,5.31
2022-11-24T02:19:54.481Z,5.23
2022-11-24T02:30:16.160Z,5.17
2022-11-24T02:40:37.860Z,5.07
2022-11-24T02:50:59.410Z,4.97
2022-11-24T03:01:21.011Z,4.90
2022-11-24T03:11:42.641Z,4.89
2022-11-24T03:22:04.449Z,4.87
2022-11-24T03:32:26.051Z,4.90
2022-11-24T03:42:47.654Z,4.84
2022-11-24T03:53:09.461Z,4.83
2022-11-24T04:03:31.055Z,4.89
2022-11-24T04:13:52.634Z,4.88
2022-11-24T04:24:14.774Z,4.96
2022-11-24T04:34:37.768Z,5.02
2022-11-24T04:44:59.298Z,5.02
2022-11-24T04:55:20.851Z,5.03
2022-11-24T05:05:42.359Z,5.11
2022-11-24T05:16:04.198Z,5.20
2022-11-24T05:26:26.674Z,5.28
2022-11-24T05:36:54.260Z,5.32
2022-11-24T05:47:15.783Z,5.37
2022-11-24T05:57:37.565Z,5.37
2022-11-24T06:08:00.614Z,5.37
2022-11-24T06:18:22.161Z,5.28
2022-11-24T06:28:44.091Z,5.16
2022-11-24T06:39:06.430Z,5.17
2022-11-24T06:49:27.871Z,5.11
2022-11-24T06:59:49.382Z,5.24
2022-11-24T07:10:10.834Z,5.22
2022-11-24T07:20:32.544Z,5.23
2022-11-24T07:30:53.977Z,5.18
2022-11-24T07:41:17.284Z,5.12
2022-11-24T07:51:38.818Z,5.14
2022-11-24T08:02:00.367Z,5.20
2022-11-24T08:12:21.974Z,5.25
2022-11-24T08:22:43.622Z,5.34
2022-11-24T08:33:05.081Z,5.46
2022-11-24T08:43:26.572Z,5.58
2022-11-24T08:53:48.369Z,5.66
2022-11-24T09:04:09.944Z,5.74
2022-11-24T09:14:31.662Z,5.82
2022-11-24T09:24:53.256Z,5.96
2022-11-24T09:35:14.809Z,6.09
2022-11-24T09:56:34.570Z,6.47
2022-11-24T10:07:05.384Z,6.65
2022-11-24T10:17:38.961Z,6.82
2022-11-24T10:28:04.753Z,7.11
2022-11-24T10:38:43.756Z,7.39
2022-11-24T10:49:05.579Z,7.44
2022-11-24T10:59:32.280Z,7.51
2022-11-24T11:10:23.558Z,7.62
2022-11-24T11:20:56.514Z,7.84
2022-11-24T11:31:22.024Z,7.99
2022-11-24T11:41:48.112Z,8.01
2022-11-24T11:52:26.667Z,8.14
2022-11-24T12:03:20.620Z,8.17
2022-11-24T12:13:50.276Z,8.19
2022-11-24T12:24:21.912Z,8.35
2022-11-24T12:35:01.104Z,8.40
2022-11-24T12:45:33.321Z,8.44
2022-11-24T12:56:00.204Z,8.52
2022-11-24T13:06:34.782Z,8.59
2022-11-24T13:27:45.601Z,8.46
2022-11-24T13:38:51.599Z,8.45
2022-11-24T13:49:20.557Z,8.43
2022-11-24T13:59:42.067Z,8.38
2022-11-24T14:10:03.949Z,8.33
2022-11-24T14:20:28.228Z,8.25
2022-11-24T14:30:49.711Z,8.20
2022-11-24T14:41:26.038Z,8.12
2022-11-24T14:51:55.544Z,7.99
2022-11-24T15:03:16.021Z,7.83
2022-11-24T15:13:38.698Z,7.66
2022-11-24T15:24:16.902Z,7.47
2022-11-24T15:34:38.362Z,7.34
2022-11-24T15:45:00.228Z,7.21
2022-11-24T15:55:22.498Z,7.02
2022-11-24T16:05:43.956Z,7.02
2022-11-24T16:16:06.315Z,7.17
2022-11-24T16:26:27.922Z,7.28
2022-11-24T16:36:49.653Z,7.36
2022-11-24T16:47:12.899Z,7.40
2022-11-24T16:57:35.640Z,7.38
2022-11-24T17:07:58.186Z,7.34
2022-11-24T17:18:26.846Z,7.21
2022-11-24T17:28:48.328Z,7.01
2022-11-24T17:39:11.032Z,6.80
2022-11-24T17:49:33.679Z,6.71
2022-11-24T17:59:55.159Z,6.54
2022-11-24T18:10:16.721Z,6.37
2022-11-24T18:20:38.189Z,6.27
2022-11-24T18:31:08.988Z,6.18
2022-11-24T18:41:30.514Z,6.09
2022-11-24T18:51:52.872Z,6.04
2022-11-24T19:02:14.396Z,5.94
2022-11-24T19:12:35.952Z,5.87
2022-11-24T19:22:57.390Z,5.85
2022-11-24T19:33:18.927Z,5.82
2022-11-24T19:43:41.148Z,5.81
2022-11-24T19:54:03.838Z,5.83
2022-11-24T20:04:25.419Z,5.78
2022-11-24T20:14:46.879Z,5.69
2022-11-24T20:25:10.789Z,5.68
2022-11-24T20:35:32.251Z,5.69
2022-11-24T20:45:53.769Z,5.63
2022-11-24T20:56:23.860Z,5.55
2022-11-24T21:06:45.842Z,5.43
2022-11-24T21:17:07.316Z,5.39
2022-11-24T21:27:28.795Z,5.33
2022-11-24T21:37:50.233Z,5.29
2022-11-24T21:48:11.681Z,5.23
2022-11-24T21:58:34.228Z,5.14
2022-11-24T22:08:55.747Z,5.10
2022-11-24T22:19:17.565Z,5.09
2022-11-24T22:29:39.006Z,5.07
2022-11-24T22:40:00.468Z,5.10
2022-11-24T22:50:21.954Z,5.12
2022-11-24T23:00:43.403Z,5.07
2022-11-24T23:11:11.435Z,5.03
2022-11-24T23:21:35.104Z,5.05
2022-11-24T23:31:56.678Z,5.06
2022-11-24T23:42:18.491Z,5.01
2022-11-24T23:52:40.063Z,4.96
